Portada
METAR-TAF:

METAR-TAF

Aeroports :

Kutaïsi, Geòrgia

latitud: 42-10-35N, longitud: 042-28-57E, altitud: 68 m

Observació

L'informe es va fer fa 21 minuts, a les 10:00 UTC
Vent 6 kt del Oest/Nord-Oest, variant entre Oest/Sud-Oest i Nord-Est
Temperatura 27°C
Humitat 62%
Pressió 1006 hPa
Visibilitat 10 km o més
Núvols disperses a una alçada de 3200 ft

METAR: UGKO 171000Z 29006KT 250V050 9999 SCT032 27/19 Q1006 NOSIG

Hora: 14:21 (10:21 UTC)

Pronòstic

L'informe es va fer fa 5 hores i 21 minuts, a les 05:00 UTC
Pronòstic vàlid del 17 a les 06 UTC al 18 a les 06 UTC
Vent 2 kt amb direcció variable
Visibilitat 10 km o més
Núvols disperses a una alçada de 3500 ft
Temporalment
l' 17 a les 10 UTC al 17 a les 15 UTC
Vent 12 kt del Oest/Sud-Oest
Temporalment
l' 17 a les 15 UTC al 17 a les 20 UTC
Cel ennuvolat a una alçada de 2300 ft, Cumulonimbus.
tempesta, pluja

TAF: UGKO 170500Z 1706/1806 VRB02KT 9999 SCT035 TX29/1711Z TN18/1802Z TEMPO 1710/1715 25012KT TEMPO 1715/1720 TSRA BKN023CB

Observacions i pronòstics meteorològics de més de 4000 aeroports (METAR i TAF).

Les estacions disponibles són els punts grocs i vermells al mapa.

Posi el ratolí al punt desitjat per veure el nom de l'estació.

Feu clic per veure les observacions i els pronòstics meteorològics.

Per canviar el mapa: feu clic els botons verds amb una creu de color negre per apropar; al botó verd amb un guió per allunyar la imatge; o en les fletxes verdes per a mapes adjacents.


METAR-TAF: